sensor_id;sensor_type;location;lat;lon;timestamp;pressure;altitude;pressure_sealevel;temperature;humidity
27685;BME280;46113;50.130;8.526;2023-05-19T00:01:50;99845.88;;;4.31;67.14
27685;BME280;46113;50.130;8.526;2023-05-19T00:04:18;99846.63;;;4.36;66.16
27685;BME280;46113;50.130;8.526;2023-05-19T00:06:49;99857.34;;;4.25;67.62
27685;BME280;46113;50.130;8.526;2023-05-19T00:09:16;99846.69;;;4.33;67.00
27685;BME280;46113;50.130;8.526;2023-05-19T00:11:43;99853.25;;;4.11;67.86
27685;BME280;46113;50.130;8.526;2023-05-19T00:14:10;99854.59;;;4.30;66.97
27685;BME280;46113;50.130;8.526;2023-05-19T00:16:37;99851.38;;;4.17;67.17
27685;BME280;46113;50.130;8.526;2023-05-19T00:19:05;99843.53;;;4.17;66.95
27685;BME280;46113;50.130;8.526;2023-05-19T00:21:32;99842.91;;;4.05;67.42
27685;BME280;46113;50.130;8.526;2023-05-19T00:23:58;99844.16;;;3.87;68.89
27685;BME280;46113;50.130;8.526;2023-05-19T00:26:25;99854.34;;;4.01;68.37
27685;BME280;46113;50.130;8.526;2023-05-19T00:29:03;99844.06;;;3.92;68.03
27685;BME280;46113;50.130;8.526;2023-05-19T00:31:30;99851.63;;;4.07;66.36
27685;BME280;46113;50.130;8.526;2023-05-19T00:33:57;99843.03;;;4.00;66.95
27685;BME280;46113;50.130;8.526;2023-05-19T00:36:24;99848.91;;;3.69;68.98
27685;BME280;46113;50.130;8.526;2023-05-19T00:38:50;99841.03;;;3.69;69.37
27685;BME280;46113;50.130;8.526;2023-05-19T00:41:17;99845.72;;;3.96;68.06
27685;BME280;46113;50.130;8.526;2023-05-19T00:43:44;99844.78;;;4.00;68.54
27685;BME280;46113;50.130;8.526;2023-05-19T00:46:11;99844.59;;;4.08;67.82
27685;BME280;46113;50.130;8.526;2023-05-19T00:48:37;99839.34;;;4.09;67.23
27685;BME280;46113;50.130;8.526;2023-05-19T00:51:04;99837.63;;;4.08;67.16
27685;BME280;46113;50.130;8.526;2023-05-19T00:53:33;99839.72;;;3.91;68.27
27685;BME280;46113;50.130;8.526;2023-05-19T00:56:00;99842.47;;;3.84;67.91
27685;BME280;46113;50.130;8.526;2023-05-19T00:58:29;99835.81;;;3.69;68.35
27685;BME280;46113;50.130;8.526;2023-05-19T01:00:58;99831.59;;;3.60;69.15
27685;BME280;46113;50.130;8.526;2023-05-19T01:03:30;99833.13;;;3.71;68.01
27685;BME280;46113;50.130;8.526;2023-05-19T01:05:58;99831.25;;;3.78;67.75
27685;BME280;46113;50.130;8.526;2023-05-19T01:08:27;99835.88;;;3.65;67.98
27685;BME280;46113;50.130;8.526;2023-05-19T01:10:54;99830.28;;;3.36;69.18
27685;BME280;46113;50.130;8.526;2023-05-19T01:13:21;99822.19;;;3.50;68.37
27685;BME280;46113;50.130;8.526;2023-05-19T01:18:31;99821.38;;;3.46;68.91
27685;BME280;46113;50.130;8.526;2023-05-19T01:31:59;99821.03;;;3.19;69.33
27685;BME280;46113;50.130;8.526;2023-05-19T01:34:26;99819.25;;;3.20;68.83
27685;BME280;46113;50.130;8.526;2023-05-19T01:36:54;99823.50;;;3.26;69.05
27685;BME280;46113;50.130;8.526;2023-05-19T01:39:22;99816.53;;;3.26;68.35
27685;BME280;46113;50.130;8.526;2023-05-19T01:41:51;99825.66;;;3.03;69.78
27685;BME280;46113;50.130;8.526;2023-05-19T01:44:18;99819.81;;;2.87;70.32
27685;BME280;46113;50.130;8.526;2023-05-19T01:46:45;99815.44;;;2.89;69.00
27685;BME280;46113;50.130;8.526;2023-05-19T01:49:13;99819.50;;;3.07;69.97
27685;BME280;46113;50.130;8.526;2023-05-19T01:51:40;99816.69;;;2.65;71.43
27685;BME280;46113;50.130;8.526;2023-05-19T01:54:06;99828.03;;;2.65;70.77
27685;BME280;46113;50.130;8.526;2023-05-19T01:56:41;99824.03;;;2.43;72.17
27685;BME280;46113;50.130;8.526;2023-05-19T02:01:52;99819.16;;;2.74;70.63
27685;BME280;46113;50.130;8.526;2023-05-19T02:12:27;99824.84;;;3.00;69.81
27685;BME280;46113;50.130;8.526;2023-05-19T02:17:40;99825.16;;;2.79;70.32
27685;BME280;46113;50.130;8.526;2023-05-19T02:20:09;99828.38;;;2.97;69.05
27685;BME280;46113;50.130;8.526;2023-05-19T02:22:36;99830.84;;;3.06;69.14
27685;BME280;46113;50.130;8.526;2023-05-19T02:25:03;99829.19;;;3.01;68.85
27685;BME280;46113;50.130;8.526;2023-05-19T02:27:32;99826.53;;;3.04;69.38
27685;BME280;46113;50.130;8.526;2023-05-19T02:30:02;99830.34;;;2.82;69.78
27685;BME280;46113;50.130;8.526;2023-05-19T02:32:30;99828.84;;;2.67;70.62
27685;BME280;46113;50.130;8.526;2023-05-19T02:34:56;99830.66;;;2.64;70.37
27685;BME280;46113;50.130;8.526;2023-05-19T02:37:23;99829.09;;;2.52;70.23
27685;BME280;46113;50.130;8.526;2023-05-19T02:39:50;99836.31;;;2.36;71.19
27685;BME280;46113;50.130;8.526;2023-05-19T02:42:17;99829.16;;;2.49;70.45
27685;BME280;46113;50.130;8.526;2023-05-19T02:44:44;99833.81;;;2.28;70.62
27685;BME280;46113;50.130;8.526;2023-05-19T02:47:11;99832.91;;;2.31;70.71
27685;BME280;46113;50.130;8.526;2023-05-19T02:49:38;99833.03;;;2.20;71.46
27685;BME280;46113;50.130;8.526;2023-05-19T02:52:05;99830.41;;;2.21;70.77
27685;BME280;46113;50.130;8.526;2023-05-19T02:54:33;99825.75;;;2.44;70.29
27685;BME280;46113;50.130;8.526;2023-05-19T02:57:00;99828.25;;;2.51;69.75
27685;BME280;46113;50.130;8.526;2023-05-19T02:59:27;99827.34;;;2.54;69.83
27685;BME280;46113;50.130;8.526;2023-05-19T03:01:56;99828.94;;;2.63;69.21
27685;BME280;46113;50.130;8.526;2023-05-19T03:04:23;99815.84;;;2.64;69.36
27685;BME280;46113;50.130;8.526;2023-05-19T03:06:49;99828.06;;;2.62;69.54
27685;BME280;46113;50.130;8.526;2023-05-19T03:09:16;99821.72;;;2.19;71.09
27685;BME280;46113;50.130;8.526;2023-05-19T03:11:43;99818.50;;;2.01;71.76
27685;BME280;46113;50.130;8.526;2023-05-19T03:14:10;99819.56;;;1.86;72.57
27685;BME280;46113;50.130;8.526;2023-05-19T03:16:37;99819.41;;;1.99;72.25
27685;BME280;46113;50.130;8.526;2023-05-19T03:19:07;99820.44;;;1.87;72.66
27685;BME280;46113;50.130;8.526;2023-05-19T03:21:34;99813.28;;;2.01;71.22
27685;BME280;46113;50.130;8.526;2023-05-19T03:24:01;99818.59;;;1.95;71.83
27685;BME280;46113;50.130;8.526;2023-05-19T03:26:28;99814.91;;;2.10;71.13
27685;BME280;46113;50.130;8.526;2023-05-19T03:28:55;99815.91;;;2.00;71.91
27685;BME280;46113;50.130;8.526;2023-05-19T03:31:22;99812.97;;;2.23;70.83
27685;BME280;46113;50.130;8.526;2023-05-19T03:33:49;99813.72;;;2.32;70.82
27685;BME280;46113;50.130;8.526;2023-05-19T03:36:16;99813.84;;;2.25;70.89
27685;BME280;46113;50.130;8.526;2023-05-19T03:38:43;99816.66;;;2.10;71.29
27685;BME280;46113;50.130;8.526;2023-05-19T03:41:09;99813.78;;;2.27;70.51
27685;BME280;46113;50.130;8.526;2023-05-19T03:43:36;99817.66;;;1.99;71.02
27685;BME280;46113;50.130;8.526;2023-05-19T03:46:05;99821.03;;;2.06;70.39
27685;BME280;46113;50.130;8.526;2023-05-19T03:48:41;99817.63;;;2.02;71.09
27685;BME280;46113;50.130;8.526;2023-05-19T03:51:46;99827.91;;;2.15;71.30
27685;BME280;46113;50.130;8.526;2023-05-19T03:54:31;99823.38;;;2.28;71.45
27685;BME280;46113;50.130;8.526;2023-05-19T03:56:58;99823.25;;;2.36;71.05
27685;BME280;46113;50.130;8.526;2023-05-19T03:59:24;99827.38;;;1.88;73.71
27685;BME280;46113;50.130;8.526;2023-05-19T04:01:51;99831.47;;;2.06;73.10
27685;BME280;46113;50.130;8.526;2023-05-19T04:04:18;99830.19;;;2.38;71.30
27685;BME280;46113;50.130;8.526;2023-05-19T04:06:45;99829.41;;;2.32;72.29
27685;BME280;46113;50.130;8.526;2023-05-19T04:09:14;99832.13;;;2.22;73.10
27685;BME280;46113;50.130;8.526;2023-05-19T04:11:41;99841.91;;;2.67;71.24
27685;BME280;46113;50.130;8.526;2023-05-19T04:14:08;99841.31;;;2.51;71.57
27685;BME280;46113;50.130;8.526;2023-05-19T04:16:35;99851.56;;;2.62;71.58
27685;BME280;46113;50.130;8.526;2023-05-19T04:19:02;99839.88;;;2.87;70.52
27685;BME280;46113;50.130;8.526;2023-05-19T04:21:29;99836.34;;;2.91;69.95
27685;BME280;46113;50.130;8.526;2023-05-19T04:23:55;99840.28;;;3.14;69.60
27685;BME280;46113;50.130;8.526;2023-05-19T04:26:25;99838.00;;;3.44;68.95
27685;BME280;46113;50.130;8.526;2023-05-19T04:28:52;99834.34;;;3.54;68.46
27685;BME280;46113;50.130;8.526;2023-05-19T04:31:22;99830.38;;;3.79;67.32
27685;BME280;46113;50.130;8.526;2023-05-19T04:33:49;99829.28;;;3.89;67.30
27685;BME280;46113;50.130;8.526;2023-05-19T04:36:17;99825.78;;;3.90;67.46
27685;BME280;46113;50.130;8.526;2023-05-19T04:38:51;99826.94;;;3.77;66.82
27685;BME280;46113;50.130;8.526;2023-05-19T04:41:23;99828.84;;;4.11;66.47
27685;BME280;46113;50.130;8.526;2023-05-19T04:43:49;99833.75;;;4.25;66.00
27685;BME280;46113;50.130;8.526;2023-05-19T04:46:18;99833.75;;;4.25;67.39
27685;BME280;46113;50.130;8.526;2023-05-19T04:48:53;99835.25;;;4.73;66.06
27685;BME280;46113;50.130;8.526;2023-05-19T04:51:20;99836.56;;;4.55;64.92
27685;BME280;46113;50.130;8.526;2023-05-19T04:53:47;99830.84;;;4.75;64.21
27685;BME280;46113;50.130;8.526;2023-05-19T04:56:14;99829.16;;;4.73;63.61
27685;BME280;46113;50.130;8.526;2023-05-19T04:58:43;99831.44;;;4.87;63.34
27685;BME280;46113;50.130;8.526;2023-05-19T05:01:10;99832.91;;;5.32;61.56
27685;BME280;46113;50.130;8.526;2023-05-19T05:03:39;99834.13;;;5.18;62.10
27685;BME280;46113;50.130;8.526;2023-05-19T05:06:06;99831.00;;;5.37;62.12
27685;BME280;46113;50.130;8.526;2023-05-19T05:08:33;99838.75;;;5.43;61.42
27685;BME280;46113;50.130;8.526;2023-05-19T05:11:00;99829.13;;;5.44;61.14
27685;BME280;46113;50.130;8.526;2023-05-19T05:13:27;99827.66;;;5.65;60.28
27685;BME280;46113;50.130;8.526;2023-05-19T05:15:55;99825.84;;;5.67;60.56
27685;BME280;46113;50.130;8.526;2023-05-19T05:18:22;99832.72;;;6.03;59.49
27685;BME280;46113;50.130;8.526;2023-05-19T05:20:49;99829.19;;;6.33;59.26
27685;BME280;46113;50.130;8.526;2023-05-19T05:23:18;99831.50;;;6.15;59.45
27685;BME280;46113;50.130;8.526;2023-05-19T05:25:47;99840.63;;;6.02;59.37
27685;BME280;46113;50.130;8.526;2023-05-19T05:28:15;99839.31;;;6.45;58.34
27685;BME280;46113;50.130;8.526;2023-05-19T05:30:42;99841.81;;;6.50;57.82
27685;BME280;46113;50.130;8.526;2023-05-19T05:33:12;99839.84;;;6.84;57.11
27685;BME280;46113;50.130;8.526;2023-05-19T05:35:39;99835.78;;;6.73;56.27
27685;BME280;46113;50.130;8.526;2023-05-19T05:38:08;99841.22;;;6.96;56.29
27685;BME280;46113;50.130;8.526;2023-05-19T05:40:37;99837.31;;;6.81;57.25
27685;BME280;46113;50.130;8.526;2023-05-19T05:43:04;99834.50;;;7.14;56.59
27685;BME280;46113;50.130;8.526;2023-05-19T05:45:36;99835.66;;;7.05;56.94
27685;BME280;46113;50.130;8.526;2023-05-19T05:48:03;99827.69;;;7.34;55.76
27685;BME280;46113;50.130;8.526;2023-05-19T05:50:31;99831.34;;;7.02;56.24
27685;BME280;46113;50.130;8.526;2023-05-19T05:52:59;99831.69;;;6.91;57.00
27685;BME280;46113;50.130;8.526;2023-05-19T05:55:27;99832.25;;;7.01;58.64
27685;BME280;46113;50.130;8.526;2023-05-19T05:57:54;99820.84;;;7.53;55.68
27685;BME280;46113;50.130;8.526;2023-05-19T06:00:22;99828.50;;;8.07;53.75
27685;BME280;46113;50.130;8.526;2023-05-19T06:02:51;99824.19;;;7.82;54.19
27685;BME280;46113;50.130;8.526;2023-05-19T06:05:18;99824.28;;;8.03;53.82
27685;BME280;46113;50.130;8.526;2023-05-19T06:07:47;99817.28;;;8.48;52.71
27685;BME280;46113;50.130;8.526;2023-05-19T06:10:18;99819.16;;;8.22;53.18
27685;BME280;46113;50.130;8.526;2023-05-19T06:12:47;99816.94;;;8.34;53.37
27685;BME280;46113;50.130;8.526;2023-05-19T06:15:14;99817.34;;;8.45;53.40
27685;BME280;46113;50.130;8.526;2023-05-19T06:18:04;99817.56;;;8.41;54.43
27685;BME280;46113;50.130;8.526;2023-05-19T06:20:31;99818.59;;;8.81;52.52
27685;BME280;46113;50.130;8.526;2023-05-19T06:22:58;99817.63;;;9.25;51.42
27685;BME280;46113;50.130;8.526;2023-05-19T06:25:27;99812.66;;;9.38;51.16
27685;BME280;46113;50.130;8.526;2023-05-19T06:27:55;99814.00;;;9.28;51.76
27685;BME280;46113;50.130;8.526;2023-05-19T06:30:22;99817.34;;;9.11;51.54
27685;BME280;46113;50.130;8.526;2023-05-19T06:33:12;99815.06;;;9.64;52.00
27685;BME280;46113;50.130;8.526;2023-05-19T06:35:39;99817.25;;;9.54;53.12
27685;BME280;46113;50.130;8.526;2023-05-19T06:38:06;99816.25;;;9.56;52.55
27685;BME280;46113;50.130;8.526;2023-05-19T06:40:33;99818.50;;;9.26;53.88
27685;BME280;46113;50.130;8.526;2023-05-19T06:43:00;99806.50;;;9.59;52.14
27685;BME280;46113;50.130;8.526;2023-05-19T06:45:49;99806.09;;;10.06;52.10
27685;BME280;46113;50.130;8.526;2023-05-19T06:48:16;99804.47;;;10.04;50.70
27685;BME280;46113;50.130;8.526;2023-05-19T06:50:43;99803.81;;;9.19;53.89
27685;BME280;46113;50.130;8.526;2023-05-19T06:53:11;99808.63;;;9.90;52.60
27685;BME280;46113;50.130;8.526;2023-05-19T06:55:38;99808.69;;;9.89;52.10
27685;BME280;46113;50.130;8.526;2023-05-19T06:58:25;99814.53;;;9.55;51.58
27685;BME280;46113;50.130;8.526;2023-05-19T07:00:53;99807.28;;;10.38;50.35
27685;BME280;46113;50.130;8.526;2023-05-19T07:03:21;99804.19;;;10.47;49.16
27685;BME280;46113;50.130;8.526;2023-05-19T07:05:47;99797.13;;;10.47;49.38
27685;BME280;46113;50.130;8.526;2023-05-19T07:08:14;99792.97;;;11.14;47.86
27685;BME280;46113;50.130;8.526;2023-05-19T07:10:42;99794.66;;;10.80;47.52
27685;BME280;46113;50.130;8.526;2023-05-19T07:13:11;99790.94;;;10.84;47.32
27685;BME280;46113;50.130;8.526;2023-05-19T07:15:39;99792.13;;;10.96;45.16
27685;BME280;46113;50.130;8.526;2023-05-19T07:18:06;99790.06;;;10.83;46.30
27685;BME280;46113;50.130;8.526;2023-05-19T07:20:34;99791.00;;;10.65;47.76
27685;BME280;46113;50.130;8.526;2023-05-19T07:23:00;99778.72;;;11.17;47.29
27685;BME280;46113;50.130;8.526;2023-05-19T07:25:28;99779.88;;;10.75;45.55
27685;BME280;46113;50.130;8.526;2023-05-19T07:27:56;99773.31;;;12.02;44.77
27685;BME280;46113;50.130;8.526;2023-05-19T07:30:22;99764.47;;;12.80;43.84
27685;BME280;46113;50.130;8.526;2023-05-19T07:32:49;99768.16;;;13.52;43.11
27685;BME280;46113;50.130;8.526;2023-05-19T07:35:16;99775.66;;;13.60;41.12
27685;BME280;46113;50.130;8.526;2023-05-19T07:37:42;99768.94;;;13.25;40.65
27685;BME280;46113;50.130;8.526;2023-05-19T07:40:09;99765.28;;;12.81;40.91
27685;BME280;46113;50.130;8.526;2023-05-19T07:42:36;99761.22;;;13.78;39.67
27685;BME280;46113;50.130;8.526;2023-05-19T07:45:03;99753.84;;;14.79;38.44
27685;BME280;46113;50.130;8.526;2023-05-19T07:47:30;99753.22;;;15.02;38.43
27685;BME280;46113;50.130;8.526;2023-05-19T07:49:57;99752.06;;;15.06;37.38
27685;BME280;46113;50.130;8.526;2023-05-19T07:52:23;99752.19;;;15.81;36.22
27685;BME280;46113;50.130;8.526;2023-05-19T07:54:50;99747.03;;;16.03;35.03
27685;BME280;46113;50.130;8.526;2023-05-19T07:57:17;99748.50;;;17.15;34.35
27685;BME280;46113;50.130;8.526;2023-05-19T07:59:44;99746.66;;;17.04;35.75
27685;BME280;46113;50.130;8.526;2023-05-19T08:02:11;99734.03;;;18.85;32.62
27685;BME280;46113;50.130;8.526;2023-05-19T08:04:37;99735.38;;;20.14;29.42
27685;BME280;46113;50.130;8.526;2023-05-19T08:07:04;99737.06;;;20.64;29.30
27685;BME280;46113;50.130;8.526;2023-05-19T08:09:31;99716.13;;;20.77;27.89
27685;BME280;46113;50.130;8.526;2023-05-19T08:11:57;99733.84;;;19.70;28.89
27685;BME280;46113;50.130;8.526;2023-05-19T08:14:24;99723.72;;;21.40;29.01
27685;BME280;46113;50.130;8.526;2023-05-19T08:16:52;99726.75;;;20.49;28.22
27685;BME280;46113;50.130;8.526;2023-05-19T08:19:18;99716.91;;;23.18;26.06
27685;BME280;46113;50.130;8.526;2023-05-19T08:21:45;99708.69;;;23.62;26.06
27685;BME280;46113;50.130;8.526;2023-05-19T08:24:13;99707.84;;;24.63;25.57
27685;BME280;46113;50.130;8.526;2023-05-19T08:26:40;99715.53;;;25.56;22.78
27685;BME280;46113;50.130;8.526;2023-05-19T08:29:07;99708.03;;;25.75;22.17
27685;BME280;46113;50.130;8.526;2023-05-19T08:31:33;99697.84;;;26.32;22.24
27685;BME280;46113;50.130;8.526;2023-05-19T08:34:00;99694.97;;;26.87;22.56
27685;BME280;46113;50.130;8.526;2023-05-19T08:36:27;99690.94;;;27.13;22.02
27685;BME280;46113;50.130;8.526;2023-05-19T08:38:54;99695.31;;;25.44;22.46
27685;BME280;46113;50.130;8.526;2023-05-19T08:41:21;99691.53;;;25.53;21.64
27685;BME280;46113;50.130;8.526;2023-05-19T08:43:48;99687.41;;;25.74;21.79
27685;BME280;46113;50.130;8.526;2023-05-19T08:46:15;99692.28;;;23.90;21.89
27685;BME280;46113;50.130;8.526;2023-05-19T08:48:43;99695.53;;;24.52;22.50
27685;BME280;46113;50.130;8.526;2023-05-19T08:51:32;99690.94;;;23.08;24.05
27685;BME280;46113;50.130;8.526;2023-05-19T08:54:13;99688.44;;;20.37;26.49
27685;BME280;46113;50.130;8.526;2023-05-19T08:56:43;99683.66;;;21.93;23.63
27685;BME280;46113;50.130;8.526;2023-05-19T08:59:13;99672.72;;;22.31;24.68
27685;BME280;46113;50.130;8.526;2023-05-19T09:01:44;99676.13;;;22.59;24.11
27685;BME280;46113;50.130;8.526;2023-05-19T09:04:12;99686.06;;;21.40;24.19
27685;BME280;46113;50.130;8.526;2023-05-19T09:06:39;99684.47;;;21.47;23.70
27685;BME280;46113;50.130;8.526;2023-05-19T09:09:07;99669.41;;;20.88;23.64
27685;BME280;46113;50.130;8.526;2023-05-19T09:11:34;99660.06;;;22.49;23.96
27685;BME280;46113;50.130;8.526;2023-05-19T09:14:03;99670.31;;;22.72;25.51
27685;BME280;46113;50.130;8.526;2023-05-19T09:16:31;99677.84;;;21.41;24.64
27685;BME280;46113;50.130;8.526;2023-05-19T09:19:00;99667.19;;;21.50;24.15
27685;BME280;46113;50.130;8.526;2023-05-19T09:21:31;99679.56;;;20.07;24.95
27685;BME280;46113;50.130;8.526;2023-05-19T09:24:04;99673.31;;;19.05;26.84
27685;BME280;46113;50.130;8.526;2023-05-19T09:29:16;99652.22;;;18.38;29.06
27685;BME280;46113;50.130;8.526;2023-05-19T09:31:54;99659.19;;;18.72;28.00
27685;BME280;46113;50.130;8.526;2023-05-19T09:34:26;99647.19;;;19.89;28.50
27685;BME280;46113;50.130;8.526;2023-05-19T09:36:53;99652.03;;;17.97;27.67
27685;BME280;46113;50.130;8.526;2023-05-19T09:39:21;99663.66;;;18.07;28.09
27685;BME280;46113;50.130;8.526;2023-05-19T09:41:54;99655.75;;;18.06;29.42
27685;BME280;46113;50.130;8.526;2023-05-19T09:44:25;99650.16;;;18.42;29.87
27685;BME280;46113;50.130;8.526;2023-05-19T09:46:56;99651.53;;;18.88;29.63
27685;BME280;46113;50.130;8.526;2023-05-19T09:49:28;99641.72;;;18.77;30.23
27685;BME280;46113;50.130;8.526;2023-05-19T09:52:01;99656.59;;;19.13;28.80
27685;BME280;46113;50.130;8.526;2023-05-19T09:54:29;99669.16;;;16.93;30.29
27685;BME280;46113;50.130;8.526;2023-05-19T09:57:03;99646.69;;;16.95;30.27
27685;BME280;46113;50.130;8.526;2023-05-19T09:59:33;99648.03;;;16.78;32.29
27685;BME280;46113;50.130;8.526;2023-05-19T10:02:00;99647.44;;;17.09;31.44
27685;BME280;46113;50.130;8.526;2023-05-19T10:04:29;99658.78;;;16.65;33.07
27685;BME280;46113;50.130;8.526;2023-05-19T10:06:57;99652.06;;;16.01;32.32
27685;BME280;46113;50.130;8.526;2023-05-19T10:09:28;99643.03;;;15.91;33.53
27685;BME280;46113;50.130;8.526;2023-05-19T10:11:56;99636.97;;;15.75;34.59
27685;BME280;46113;50.130;8.526;2023-05-19T10:14:24;99633.56;;;15.86;33.98
27685;BME280;46113;50.130;8.526;2023-05-19T10:16:57;99648.09;;;16.54;33.92
27685;BME280;46113;50.130;8.526;2023-05-19T10:19:26;99641.75;;;16.43;33.20
27685;BME280;46113;50.130;8.526;2023-05-19T10:21:54;99629.84;;;16.00;32.75
27685;BME280;46113;50.130;8.526;2023-05-19T10:24:21;99628.13;;;15.75;34.12
27685;BME280;46113;50.130;8.526;2023-05-19T10:26:54;99621.41;;;16.18;34.33
27685;BME280;46113;50.130;8.526;2023-05-19T10:29:25;99624.66;;;16.10;34.85
27685;BME280;46113;50.130;8.526;2023-05-19T10:31:54;99620.63;;;15.93;33.97
27685;BME280;46113;50.130;8.526;2023-05-19T10:37:16;99618.53;;;15.48;34.27
27685;BME280;46113;50.130;8.526;2023-05-19T10:39:49;99610.25;;;15.40;35.99
27685;BME280;46113;50.130;8.526;2023-05-19T10:42:37;99608.31;;;15.17;34.48
27685;BME280;46113;50.130;8.526;2023-05-19T10:47:41;99610.25;;;16.13;33.27
27685;BME280;46113;50.130;8.526;2023-05-19T10:50:08;99614.13;;;16.09;34.28
27685;BME280;46113;50.130;8.526;2023-05-19T10:52:37;99612.28;;;16.09;33.17
27685;BME280;46113;50.130;8.526;2023-05-19T10:55:08;99605.94;;;15.99;33.52
27685;BME280;46113;50.130;8.526;2023-05-19T10:57:35;99599.13;;;16.31;33.83
27685;BME280;46113;50.130;8.526;2023-05-19T11:02:50;99598.78;;;16.35;33.67
27685;BME280;46113;50.130;8.526;2023-05-19T11:05:27;99605.84;;;16.36;34.24
27685;BME280;46113;50.130;8.526;2023-05-19T11:07:56;99601.91;;;16.18;33.69
27685;BME280;46113;50.130;8.526;2023-05-19T11:10:27;99586.16;;;15.90;33.56
27685;BME280;46113;50.130;8.526;2023-05-19T11:12:55;99596.09;;;16.24;34.71
27685;BME280;46113;50.130;8.526;2023-05-19T11:15:25;99587.09;;;16.95;35.19
27685;BME280;46113;50.130;8.526;2023-05-19T11:18:00;99588.59;;;17.32;34.16
27685;BME280;46113;50.130;8.526;2023-05-19T11:20:28;99587.19;;;16.93;33.02
27685;BME280;46113;50.130;8.526;2023-05-19T11:23:13;99581.59;;;16.97;34.60
27685;BME280;46113;50.130;8.526;2023-05-19T11:25:45;99573.84;;;17.49;33.35
27685;BME280;46113;50.130;8.526;2023-05-19T11:28:17;99577.09;;;17.08;33.29
27685;BME280;46113;50.130;8.526;2023-05-19T11:30:46;99573.97;;;17.92;32.71
27685;BME280;46113;50.130;8.526;2023-05-19T11:33:16;99582.34;;;16.87;32.87
27685;BME280;46113;50.130;8.526;2023-05-19T11:35:47;99578.09;;;16.96;32.86
27685;BME280;46113;50.130;8.526;2023-05-19T11:38:17;99583.41;;;16.39;32.99
27685;BME280;46113;50.130;8.526;2023-05-19T11:40:45;99571.25;;;16.46;33.47
27685;BME280;46113;50.130;8.526;2023-05-19T11:43:14;99576.47;;;16.48;33.58
27685;BME280;46113;50.130;8.526;2023-05-19T11:45:42;99575.78;;;15.98;33.38
27685;BME280;46113;50.130;8.526;2023-05-19T11:48:12;99571.84;;;16.38;32.97
27685;BME280;46113;50.130;8.526;2023-05-19T11:50:40;99568.50;;;15.76;33.79
27685;BME280;46113;50.130;8.526;2023-05-19T11:53:07;99571.84;;;15.42;34.42
27685;BME280;46113;50.130;8.526;2023-05-19T11:55:41;99580.97;;;15.75;35.29
27685;BME280;46113;50.130;8.526;2023-05-19T11:58:08;99571.56;;;16.19;33.57
27685;BME280;46113;50.130;8.526;2023-05-19T12:00:37;99562.88;;;16.39;32.98
27685;BME280;46113;50.130;8.526;2023-05-19T12:03:05;99551.25;;;16.98;34.91
27685;BME280;46113;50.130;8.526;2023-05-19T12:05:36;99552.72;;;17.34;32.26
27685;BME280;46113;50.130;8.526;2023-05-19T12:08:11;99555.34;;;17.13;31.43
27685;BME280;46113;50.130;8.526;2023-05-19T12:10:39;99558.16;;;16.66;32.59
27685;BME280;46113;50.130;8.526;2023-05-19T12:13:06;99567.00;;;16.55;33.50
27685;BME280;46113;50.130;8.526;2023-05-19T12:15:36;99551.25;;;16.63;33.14
27685;BME280;46113;50.130;8.526;2023-05-19T12:18:04;99560.19;;;16.28;33.86
27685;BME280;46113;50.130;8.526;2023-05-19T12:20:31;99572.38;;;16.08;33.88
27685;BME280;46113;50.130;8.526;2023-05-19T12:23:01;99570.00;;;16.27;33.38
27685;BME280;46113;50.130;8.526;2023-05-19T12:25:28;99587.00;;;16.26;32.55
27685;BME280;46113;50.130;8.526;2023-05-19T12:27:57;99563.72;;;17.08;33.63
27685;BME280;46113;50.130;8.526;2023-05-19T12:30:28;99558.28;;;16.99;33.30
27685;BME280;46113;50.130;8.526;2023-05-19T12:32:55;99560.31;;;17.18;32.21
27685;BME280;46113;50.130;8.526;2023-05-19T12:35:29;99566.38;;;17.31;32.39
27685;BME280;46113;50.130;8.526;2023-05-19T12:38:02;99565.94;;;16.92;31.00
27685;BME280;46113;50.130;8.526;2023-05-19T12:40:30;99563.53;;;16.77;31.97
27685;BME280;46113;50.130;8.526;2023-05-19T12:42:57;99547.72;;;17.53;32.98
27685;BME280;46113;50.130;8.526;2023-05-19T12:45:24;99547.47;;;17.56;33.46
27685;BME280;46113;50.130;8.526;2023-05-19T12:47:54;99540.41;;;17.87;31.08
27685;BME280;46113;50.130;8.526;2023-05-19T12:50:28;99548.78;;;17.94;33.12
27685;BME280;46113;50.130;8.526;2023-05-19T12:52:56;99545.75;;;18.30;31.71
27685;BME280;46113;50.130;8.526;2023-05-19T12:55:24;99544.78;;;18.10;29.99
27685;BME280;46113;50.130;8.526;2023-05-19T12:57:51;99539.44;;;17.56;32.20
27685;BME280;46113;50.130;8.526;2023-05-19T13:00:22;99536.97;;;17.31;29.91
27685;BME280;46113;50.130;8.526;2023-05-19T13:03:03;99533.00;;;17.58;31.19
27685;BME280;46113;50.130;8.526;2023-05-19T13:05:36;99533.88;;;18.23;31.42
27685;BME280;46113;50.130;8.526;2023-05-19T13:08:06;99527.16;;;17.86;30.98
27685;BME280;46113;50.130;8.526;2023-05-19T13:10:35;99529.34;;;18.23;32.52
27685;BME280;46113;50.130;8.526;2023-05-19T13:13:03;99534.97;;;17.56;31.57
27685;BME280;46113;50.130;8.526;2023-05-19T13:15:32;99537.50;;;17.46;30.68
27685;BME280;46113;50.130;8.526;2023-05-19T13:18:04;99535.44;;;17.06;31.04
27685;BME280;46113;50.130;8.526;2023-05-19T13:20:32;99526.38;;;17.74;32.42
27685;BME280;46113;50.130;8.526;2023-05-19T13:23:00;99527.09;;;18.19;30.77
27685;BME280;46113;50.130;8.526;2023-05-19T13:25:27;99522.97;;;17.72;31.68
27685;BME280;46113;50.130;8.526;2023-05-19T13:27:54;99524.78;;;17.39;31.56
27685;BME280;46113;50.130;8.526;2023-05-19T13:30:22;99529.91;;;16.75;32.62
27685;BME280;46113;50.130;8.526;2023-05-19T13:32:49;99526.13;;;16.54;32.27
27685;BME280;46113;50.130;8.526;2023-05-19T13:35:18;99518.59;;;17.38;31.45
27685;BME280;46113;50.130;8.526;2023-05-19T13:37:45;99515.19;;;16.92;31.62
27685;BME280;46113;50.130;8.526;2023-05-19T13:40:12;99512.88;;;16.64;32.33
27685;BME280;46113;50.130;8.526;2023-05-19T13:42:39;99521.25;;;16.37;31.99
27685;BME280;46113;50.130;8.526;2023-05-19T13:45:06;99525.16;;;16.55;32.72
27685;BME280;46113;50.130;8.526;2023-05-19T13:47:33;99519.31;;;16.50;32.08
27685;BME280;46113;50.130;8.526;2023-05-19T13:50:01;99503.56;;;16.81;31.93
27685;BME280;46113;50.130;8.526;2023-05-19T13:52:28;99512.78;;;16.54;32.49